createdAt,value
2023-04-23T00:01:11.976Z,8.13
2023-04-23T00:03:45.732Z,7.78
2023-04-23T00:06:20.470Z,7.97
2023-04-23T00:08:54.395Z,8.40
2023-04-23T00:11:27.203Z,8.75
2023-04-23T00:13:59.304Z,13.02
2023-04-23T00:16:40.588Z,8.90
2023-04-23T00:19:14.799Z,8.30
2023-04-23T00:24:19.385Z,8.07
2023-04-23T00:26:52.224Z,9.20
2023-04-23T00:29:24.192Z,9.07
2023-04-23T00:31:56.980Z,8.82
2023-04-23T00:34:30.356Z,8.88
2023-04-23T00:37:07.706Z,8.27
2023-04-23T00:39:40.407Z,7.75
2023-04-23T00:42:15.635Z,7.53
2023-04-23T00:44:47.343Z,8.88
2023-04-23T00:47:22.815Z,8.45
2023-04-23T00:49:57.258Z,7.45
2023-04-23T00:52:27.548Z,7.40
2023-04-23T00:54:57.885Z,6.68
2023-04-23T00:57:28.656Z,6.28
2023-04-23T00:59:59.483Z,7.10
2023-04-23T01:02:31.787Z,5.68
2023-04-23T01:05:03.163Z,5.75
2023-04-23T01:07:36.029Z,6.60
2023-04-23T01:10:06.469Z,6.60
2023-04-23T01:12:36.190Z,7.38
2023-04-23T01:15:07.152Z,6.82
2023-04-23T01:17:36.176Z,6.35
2023-04-23T01:20:07.866Z,6.70
2023-04-23T01:22:39.612Z,6.53
2023-04-23T01:25:09.462Z,6.77
2023-04-23T01:27:39.925Z,6.28
2023-04-23T01:30:10.335Z,5.97
2023-04-23T01:32:40.626Z,6.10
2023-04-23T01:35:11.559Z,5.63
2023-04-23T01:37:41.512Z,6.93
2023-04-23T01:40:11.263Z,6.78
2023-04-23T01:42:42.234Z,6.32
2023-04-23T01:45:11.807Z,6.18
2023-04-23T01:47:43.080Z,4.70
2023-04-23T01:50:12.378Z,4.68
2023-04-23T01:52:42.416Z,5.25
2023-04-23T01:55:12.090Z,7.22
2023-04-23T01:57:41.651Z,7.97
2023-04-23T02:00:13.979Z,5.25
2023-04-23T02:02:45.245Z,4.85
2023-04-23T02:05:18.157Z,5.20
2023-04-23T02:07:50.213Z,5.13
2023-04-23T02:10:19.722Z,5.22
2023-04-23T02:12:50.195Z,4.93
2023-04-23T02:15:20.847Z,4.32
2023-04-23T02:17:52.470Z,4.95
2023-04-23T02:20:22.765Z,5.05
2023-04-23T02:22:52.138Z,5.00
2023-04-23T02:25:23.002Z,5.05
2023-04-23T02:27:52.036Z,4.78
2023-04-23T02:30:21.190Z,4.03
2023-04-23T02:32:51.333Z,4.65
2023-04-23T02:35:20.932Z,4.20
2023-04-23T02:37:50.106Z,5.00
2023-04-23T02:40:19.264Z,4.25
2023-04-23T02:42:48.433Z,4.18
2023-04-23T02:45:18.137Z,4.40
2023-04-23T02:47:47.159Z,4.22
2023-04-23T02:50:17.560Z,4.45
2023-04-23T02:52:47.337Z,4.03
2023-04-23T02:55:16.559Z,5.15
2023-04-23T02:57:46.672Z,4.20
2023-04-23T03:00:16.470Z,4.88
2023-04-23T03:02:46.052Z,5.20
2023-04-23T03:05:15.451Z,6.03
2023-04-23T03:07:44.289Z,3.30
2023-04-23T03:10:13.393Z,3.33
2023-04-23T03:12:42.548Z,3.33
2023-04-23T03:15:12.794Z,2.95
2023-04-23T03:17:42.790Z,2.40
2023-04-23T03:20:15.765Z,2.55
2023-04-23T03:22:45.300Z,2.70
2023-04-23T03:25:14.758Z,3.50
2023-04-23T03:27:45.167Z,3.67
2023-04-23T03:30:14.666Z,3.30
2023-04-23T03:32:43.457Z,2.50
2023-04-23T03:35:14.110Z,3.40
2023-04-23T03:37:47.502Z,3.50
2023-04-23T03:40:17.488Z,3.30
2023-04-23T03:42:49.671Z,3.03
2023-04-23T03:45:21.467Z,2.93
2023-04-23T03:47:50.867Z,3.47
2023-04-23T03:50:20.698Z,4.15
2023-04-23T03:53:00.273Z,4.35
2023-04-23T03:55:49.225Z,4.53
2023-04-23T03:58:18.965Z,5.20
2023-04-23T04:00:49.195Z,4.60
2023-04-23T04:03:18.794Z,4.68
2023-04-23T04:05:48.685Z,5.47
2023-04-23T04:08:17.674Z,3.13
2023-04-23T04:10:47.060Z,4.00
2023-04-23T04:13:17.164Z,3.25
2023-04-23T04:15:46.217Z,4.10
2023-04-23T04:18:15.862Z,3.45
2023-04-23T04:20:46.435Z,2.78
2023-04-23T04:23:15.668Z,3.10
2023-04-23T04:25:44.499Z,2.97
2023-04-23T04:28:13.688Z,2.70
2023-04-23T04:30:43.797Z,3.22
2023-04-23T04:33:12.825Z,4.32
2023-04-23T04:35:41.765Z,3.67
2023-04-23T04:38:10.912Z,2.67
2023-04-23T04:40:40.007Z,2.40
2023-04-23T04:43:08.965Z,2.70
2023-04-23T04:45:37.946Z,2.72
2023-04-23T04:48:06.890Z,1.98
2023-04-23T04:50:36.584Z,2.30
2023-04-23T04:53:05.446Z,3.72
2023-04-23T04:55:34.417Z,1.60
2023-04-23T04:58:03.598Z,1.90
2023-04-23T05:00:32.777Z,2.00
2023-04-23T05:03:02.209Z,1.77
2023-04-23T05:05:34.436Z,1.95
2023-04-23T05:08:04.883Z,3.00
2023-04-23T05:10:33.921Z,2.00
2023-04-23T05:13:02.797Z,1.50
2023-04-23T05:15:34.073Z,2.00
2023-04-23T05:18:08.777Z,1.67
2023-04-23T05:20:39.541Z,2.00
2023-04-23T05:23:08.521Z,2.50
2023-04-23T05:25:37.394Z,1.38
2023-04-23T05:28:06.623Z,1.75
2023-04-23T05:30:35.580Z,1.98
2023-04-23T05:33:04.956Z,1.50
2023-04-23T05:35:34.251Z,2.42
2023-04-23T05:38:03.737Z,2.47
2023-04-23T05:40:32.927Z,5.07
2023-04-23T05:43:02.345Z,3.17
2023-04-23T05:45:32.818Z,2.10
2023-04-23T05:48:02.225Z,1.55
2023-04-23T05:50:31.519Z,2.63
2023-04-23T05:53:00.498Z,2.40
2023-04-23T05:55:29.994Z,2.33
2023-04-23T05:57:59.097Z,1.85
2023-04-23T06:00:28.137Z,1.80
2023-04-23T06:02:57.371Z,1.50
2023-04-23T06:05:26.875Z,2.63
2023-04-23T06:07:55.867Z,1.65
2023-04-23T06:10:25.112Z,2.45
2023-04-23T06:12:56.354Z,1.65
2023-04-23T06:15:28.077Z,1.73
2023-04-23T06:17:57.419Z,1.80
2023-04-23T06:20:27.046Z,1.98
2023-04-23T06:22:56.168Z,1.55
2023-04-23T06:25:25.092Z,2.95
2023-04-23T06:27:54.279Z,4.60
2023-04-23T06:30:26.718Z,1.35
2023-04-23T06:32:55.922Z,1.50
2023-04-23T06:35:25.024Z,5.13
2023-04-23T06:37:54.571Z,3.25
2023-04-23T06:40:23.676Z,3.00
2023-04-23T06:42:53.009Z,1.60
2023-04-23T06:45:39.296Z,1.80
2023-04-23T06:48:08.744Z,1.67
2023-04-23T06:50:37.723Z,2.58
2023-04-23T06:53:07.258Z,2.40
2023-04-23T06:55:37.195Z,2.03
2023-04-23T06:58:08.152Z,1.25
2023-04-23T07:00:37.406Z,2.00
2023-04-23T07:03:06.699Z,1.55
2023-04-23T07:05:35.806Z,2.65
2023-04-23T07:08:04.770Z,1.85
2023-04-23T07:10:33.974Z,2.05
2023-04-23T07:13:03.255Z,2.10
2023-04-23T07:15:32.519Z,2.67
2023-04-23T07:18:01.681Z,1.95
2023-04-23T07:20:31.612Z,2.13
2023-04-23T07:23:01.620Z,1.90
2023-04-23T07:25:31.073Z,2.67
2023-04-23T07:28:00.248Z,2.03
2023-04-23T07:30:30.105Z,2.38
2023-04-23T07:32:59.539Z,2.28
2023-04-23T07:35:28.512Z,2.35
2023-04-23T07:37:58.973Z,2.90
2023-04-23T07:40:28.799Z,2.72
2023-04-23T07:43:00.212Z,2.28
2023-04-23T07:45:30.737Z,1.90
2023-04-23T07:48:00.519Z,2.58
2023-04-23T07:50:31.426Z,1.77
2023-04-23T07:53:00.418Z,1.50
2023-04-23T07:55:29.380Z,1.45
2023-04-23T07:57:58.633Z,1.10
2023-04-23T08:00:28.905Z,1.50
2023-04-23T08:03:01.562Z,1.92
2023-04-23T08:05:31.336Z,1.77
2023-04-23T08:08:00.638Z,2.33
2023-04-23T08:10:30.276Z,2.00
2023-04-23T08:12:59.220Z,1.90
2023-04-23T08:15:28.456Z,2.50
2023-04-23T08:17:58.942Z,1.58
2023-04-23T08:20:28.823Z,1.60
2023-04-23T08:22:57.704Z,1.88
2023-04-23T08:25:26.802Z,1.50
2023-04-23T08:27:55.851Z,2.38
2023-04-23T08:30:24.926Z,1.70
2023-04-23T08:32:57.753Z,1.50
2023-04-23T08:35:26.810Z,1.90
2023-04-23T08:37:55.786Z,1.67
2023-04-23T08:40:25.305Z,1.42
2023-04-23T08:43:04.121Z,1.40
2023-04-23T08:45:36.009Z,1.85
2023-04-23T08:48:06.746Z,1.88
2023-04-23T08:50:37.748Z,1.73
2023-04-23T08:53:08.806Z,1.90
2023-04-23T08:55:38.396Z,1.73
2023-04-23T08:58:08.194Z,1.58
2023-04-23T09:00:37.235Z,1.88
2023-04-23T09:03:07.555Z,4.10
2023-04-23T09:05:36.690Z,1.30
2023-04-23T09:08:06.279Z,1.77
2023-04-23T09:10:38.797Z,1.42
2023-04-23T09:13:08.015Z,1.52
2023-04-23T09:15:40.648Z,1.35
2023-04-23T09:18:09.943Z,2.53
2023-04-23T09:20:38.868Z,3.30
2023-04-23T09:23:15.249Z,1.80
2023-04-23T09:25:44.467Z,1.40
2023-04-23T09:28:13.253Z,2.28
2023-04-23T09:30:50.091Z,1.50
2023-04-23T09:33:19.274Z,1.30
2023-04-23T09:35:49.936Z,1.33
2023-04-23T09:38:21.426Z,1.98
2023-04-23T09:40:52.040Z,2.33
2023-04-23T09:43:21.302Z,1.80
2023-04-23T09:45:51.510Z,1.52
2023-04-23T09:48:22.928Z,2.22
2023-04-23T09:50:51.990Z,1.75
2023-04-23T09:53:21.416Z,1.90
2023-04-23T09:55:54.335Z,4.28
2023-04-23T09:58:28.932Z,1.83
2023-04-23T10:01:09.251Z,1.60
2023-04-23T10:03:43.371Z,1.45
2023-04-23T10:06:37.004Z,1.58
2023-04-23T10:09:08.912Z,1.58
2023-04-23T10:11:39.360Z,2.25
2023-04-23T10:14:10.210Z,1.83
2023-04-23T10:16:48.724Z,1.70
2023-04-23T10:19:26.608Z,1.70
2023-04-23T10:22:08.612Z,1.70
2023-04-23T10:24:50.046Z,1.57
2023-04-23T10:29:52.772Z,31.50
2023-04-23T10:32:22.887Z,4.57
2023-04-23T10:34:53.423Z,7.78
2023-04-23T10:37:23.664Z,2.35
2023-04-23T10:39:57.190Z,2.17
2023-04-23T10:42:27.041Z,1.70
2023-04-23T10:45:07.114Z,1.50
2023-04-23T10:47:39.393Z,1.75
2023-04-23T10:50:23.120Z,1.63
2023-04-23T10:52:55.108Z,2.65
2023-04-23T10:55:29.363Z,1.92
2023-04-23T10:58:09.136Z,2.70
2023-04-23T11:00:47.175Z,2.17
2023-04-23T11:03:43.165Z,2.33
2023-04-23T11:06:21.997Z,1.73
2023-04-23T11:08:55.372Z,1.50
2023-04-23T11:11:41.375Z,2.20
2023-04-23T11:14:17.124Z,1.73
2023-04-23T11:16:46.461Z,1.77
2023-04-23T11:19:19.873Z,1.40
2023-04-23T11:22:00.243Z,1.58
2023-04-23T11:24:34.615Z,1.98
2023-04-23T11:27:07.686Z,2.15
2023-04-23T11:29:38.873Z,1.85
2023-04-23T11:32:15.213Z,1.50
2023-04-23T11:34:46.682Z,1.58
2023-04-23T11:37:17.829Z,1.50
2023-04-23T11:39:48.423Z,2.40
2023-04-23T11:42:18.407Z,2.22
2023-04-23T11:44:48.928Z,2.15
2023-04-23T11:47:19.584Z,1.88
2023-04-23T11:49:50.044Z,1.95
2023-04-23T11:52:18.964Z,1.83
2023-04-23T11:54:47.981Z,1.80
2023-04-23T11:57:17.367Z,2.00
2023-04-23T11:59:46.426Z,1.85
2023-04-23T12:02:15.353Z,2.13
2023-04-23T12:04:45.644Z,1.83
2023-04-23T12:07:25.810Z,2.38
2023-04-23T12:10:02.416Z,1.80
2023-04-23T12:12:37.093Z,2.38
2023-04-23T12:15:11.076Z,2.10
2023-04-23T12:17:40.121Z,1.83
2023-04-23T12:20:14.444Z,2.67
2023-04-23T12:22:43.579Z,2.47
2023-04-23T12:25:12.779Z,2.30
2023-04-23T12:27:43.533Z,3.10
2023-04-23T12:30:13.934Z,2.28
2023-04-23T12:32:43.014Z,1.63
2023-04-23T12:35:13.105Z,2.08
2023-04-23T12:37:42.783Z,2.08
2023-04-23T12:40:12.278Z,2.35
2023-04-23T12:42:41.279Z,2.97
2023-04-23T12:45:11.358Z,2.55
2023-04-23T12:47:40.405Z,2.40
2023-04-23T12:50:09.987Z,2.80
2023-04-23T12:52:39.470Z,2.70
2023-04-23T12:55:08.640Z,2.58
2023-04-23T12:57:37.804Z,2.55
2023-04-23T13:00:07.176Z,1.98
2023-04-23T13:02:36.421Z,2.88
2023-04-23T13:05:05.793Z,2.80
2023-04-23T13:07:34.929Z,3.47
2023-04-23T13:10:03.826Z,2.50
2023-04-23T13:12:33.402Z,2.55
2023-04-23T13:15:02.412Z,3.53
2023-04-23T13:17:31.723Z,3.17
2023-04-23T13:20:00.866Z,3.45
2023-04-23T13:22:30.937Z,3.45
2023-04-23T13:25:01.182Z,2.80
2023-04-23T13:27:31.864Z,3.50
2023-04-23T13:30:01.376Z,3.45
2023-04-23T13:32:35.222Z,6.13
2023-04-23T13:35:05.982Z,3.83
2023-04-23T13:37:35.104Z,6.40
2023-04-23T13:40:05.450Z,6.28
2023-04-23T13:42:35.299Z,8.10
2023-04-23T13:45:07.267Z,11.05
2023-04-23T13:47:36.890Z,10.40
2023-04-23T13:50:07.965Z,11.82
2023-04-23T13:52:38.429Z,10.82
2023-04-23T13:55:09.116Z,11.55
2023-04-23T13:57:39.299Z,12.20
2023-04-23T14:00:09.906Z,11.15
2023-04-23T14:02:40.169Z,8.85
2023-04-23T14:05:10.257Z,9.55
2023-04-23T14:07:39.184Z,8.57
2023-04-23T14:10:08.845Z,7.75
2023-04-23T14:12:38.588Z,10.07
2023-04-23T14:15:09.211Z,9.13
2023-04-23T14:17:41.791Z,9.32
2023-04-23T14:20:11.718Z,10.98
2023-04-23T14:22:40.991Z,8.98
2023-04-23T14:25:16.012Z,8.27
2023-04-23T14:27:53.125Z,7.97
2023-04-23T14:30:27.441Z,7.78
2023-04-23T14:32:57.577Z,9.02
2023-04-23T14:35:39.495Z,7.10
2023-04-23T14:38:11.566Z,8.45
2023-04-23T14:40:40.769Z,7.78
2023-04-23T14:43:15.534Z,6.15
2023-04-23T14:45:45.958Z,6.65
2023-04-23T14:48:14.910Z,6.30
2023-04-23T14:50:44.023Z,7.50
2023-04-23T14:53:13.079Z,6.35
2023-04-23T14:55:44.156Z,6.47
2023-04-23T14:58:13.436Z,7.10
2023-04-23T15:00:42.563Z,7.22
2023-04-23T15:03:11.943Z,7.60
2023-04-23T15:05:42.970Z,8.15
2023-04-23T15:08:12.049Z,9.18
2023-04-23T15:10:41.388Z,8.38
2023-04-23T15:13:31.428Z,8.00
2023-04-23T15:16:05.585Z,8.95
2023-04-23T15:18:35.339Z,8.65
2023-04-23T15:21:04.718Z,10.32
2023-04-23T15:23:34.273Z,10.88
2023-04-23T15:26:04.698Z,11.68
2023-04-23T15:28:33.867Z,10.20
2023-04-23T15:31:02.798Z,9.90
2023-04-23T15:33:32.226Z,10.15
2023-04-23T15:36:01.155Z,11.90
2023-04-23T15:38:30.308Z,22.08
2023-04-23T15:40:59.461Z,15.95
2023-04-23T15:43:28.743Z,18.25
2023-04-23T15:45:59.970Z,16.48
2023-04-23T15:48:29.611Z,17.00
2023-04-23T15:50:59.038Z,14.00
2023-04-23T15:53:29.420Z,16.60
2023-04-23T15:55:58.799Z,13.00
2023-04-23T15:58:27.731Z,13.27
2023-04-23T16:00:57.437Z,18.63
2023-04-23T16:03:26.869Z,21.35
2023-04-23T16:05:55.981Z,26.52
2023-04-23T16:08:25.018Z,21.92
2023-04-23T16:10:54.478Z,14.75
2023-04-23T16:13:24.150Z,11.77
2023-04-23T16:15:54.301Z,10.13
2023-04-23T16:18:23.700Z,8.90
2023-04-23T16:20:52.700Z,9.10
2023-04-23T16:23:22.013Z,8.65
2023-04-23T16:25:51.201Z,8.70
2023-04-23T16:28:20.516Z,8.43
2023-04-23T16:30:50.293Z,8.10
2023-04-23T16:33:19.471Z,9.95
2023-04-23T16:35:48.791Z,16.42
2023-04-23T16:38:18.362Z,13.40
2023-04-23T16:40:48.551Z,14.30
2023-04-23T16:43:17.589Z,13.85
2023-04-23T16:45:47.142Z,11.05
2023-04-23T16:48:17.882Z,12.82
2023-04-23T16:50:47.052Z,12.90
2023-04-23T16:53:16.248Z,11.52
2023-04-23T16:55:45.959Z,10.98
2023-04-23T16:58:15.188Z,12.18
2023-04-23T17:00:45.918Z,10.57
2023-04-23T17:03:15.374Z,10.70
2023-04-23T17:05:45.094Z,11.23
2023-04-23T17:08:14.073Z,9.95
2023-04-23T17:10:43.738Z,11.60
2023-04-23T17:13:12.773Z,11.35
2023-04-23T17:15:42.539Z,10.75
2023-04-23T17:18:12.557Z,10.95
2023-04-23T17:20:42.000Z,12.38
2023-04-23T17:23:11.035Z,16.80
2023-04-23T17:25:40.004Z,14.90
2023-04-23T17:28:09.873Z,22.55
2023-04-23T17:30:39.302Z,15.98
2023-04-23T17:33:08.347Z,10.65
2023-04-23T17:35:38.197Z,10.75
2023-04-23T17:38:07.135Z,10.45
2023-04-23T17:40:37.405Z,10.52
2023-04-23T17:43:07.862Z,12.18
2023-04-23T17:45:36.640Z,10.95
2023-04-23T17:48:06.581Z,12.25
2023-04-23T17:50:36.086Z,35.60
2023-04-23T17:53:06.133Z,19.63
2023-04-23T17:55:35.292Z,15.02
2023-04-23T17:58:08.027Z,55.95
2023-04-23T18:00:38.509Z,33.40
2023-04-23T18:03:09.799Z,21.60
2023-04-23T18:05:38.985Z,19.20
2023-04-23T18:08:09.130Z,16.27
2023-04-23T18:10:39.280Z,17.92
2023-04-23T18:13:12.380Z,15.50
2023-04-23T18:15:46.871Z,15.90
2023-04-23T18:18:15.862Z,16.40
2023-04-23T18:20:47.277Z,53.13
2023-04-23T18:23:16.946Z,45.00
2023-04-23T18:25:45.780Z,43.50
2023-04-23T18:28:15.798Z,27.08
2023-04-23T18:30:44.688Z,19.02
2023-04-23T18:33:17.835Z,17.58
2023-04-23T18:35:49.622Z,16.15
2023-04-23T18:38:38.482Z,17.23
2023-04-23T18:41:07.515Z,56.22
2023-04-23T18:43:36.271Z,39.28
2023-04-23T18:46:05.715Z,27.90
2023-04-23T18:48:34.520Z,29.48
2023-04-23T18:51:15.461Z,31.88
2023-04-23T18:53:44.583Z,25.17
2023-04-23T18:56:13.472Z,22.05
2023-04-23T18:58:42.718Z,20.13
2023-04-23T19:01:11.711Z,17.30
2023-04-23T19:03:40.877Z,16.42
2023-04-23T19:06:10.070Z,47.78
2023-04-23T19:08:39.885Z,82.45
2023-04-23T19:11:09.272Z,74.88
2023-04-23T19:13:38.223Z,36.05
2023-04-23T19:16:07.711Z,94.82
2023-04-23T19:18:37.231Z,62.88
2023-04-23T19:21:07.196Z,94.80
2023-04-23T19:23:36.105Z,549.65
2023-04-23T19:26:07.656Z,492.23
2023-04-23T19:28:36.836Z,386.17
2023-04-23T19:31:05.761Z,192.95
2023-04-23T19:33:36.311Z,113.93
2023-04-23T19:36:05.633Z,51.05
2023-04-23T19:38:34.662Z,31.23
2023-04-23T19:41:05.613Z,22.80
2023-04-23T19:43:34.601Z,19.63
2023-04-23T19:46:03.539Z,15.02
2023-04-23T19:48:32.742Z,15.85
2023-04-23T19:51:01.804Z,20.45
2023-04-23T19:53:31.147Z,24.58
2023-04-23T19:56:00.320Z,25.33
2023-04-23T19:58:29.347Z,43.55
2023-04-23T20:00:59.099Z,29.45
2023-04-23T20:03:30.675Z,20.88
2023-04-23T20:06:00.390Z,17.67
2023-04-23T20:08:42.780Z,18.90
2023-04-23T20:11:12.547Z,15.25
2023-04-23T20:13:44.302Z,15.00
2023-04-23T20:16:14.402Z,15.52
2023-04-23T20:18:44.878Z,16.30
2023-04-23T20:21:15.125Z,19.88
2023-04-23T20:23:45.380Z,18.27
2023-04-23T20:26:15.575Z,23.60
2023-04-23T20:28:48.084Z,19.27
2023-04-23T20:33:52.709Z,17.10
2023-04-23T20:36:25.231Z,16.13
2023-04-23T20:38:59.580Z,19.92
2023-04-23T20:41:33.118Z,18.92
2023-04-23T20:44:04.995Z,18.45
2023-04-23T20:46:40.036Z,18.90
2023-04-23T20:51:41.402Z,28.30
2023-04-23T20:54:13.201Z,27.10
2023-04-23T20:56:43.927Z,23.58
2023-04-23T20:59:14.820Z,17.92
2023-04-23T21:01:45.667Z,18.20
2023-04-23T21:04:17.687Z,18.80
2023-04-23T21:06:48.720Z,18.83
2023-04-23T21:09:20.200Z,18.38
2023-04-23T21:11:52.131Z,19.88
2023-04-23T21:14:22.726Z,18.27
2023-04-23T21:16:54.721Z,17.13
2023-04-23T21:19:26.625Z,51.60
2023-04-23T21:21:57.401Z,54.50
2023-04-23T21:24:27.968Z,118.00
2023-04-23T21:26:59.039Z,172.90
2023-04-23T21:29:30.093Z,47.20
2023-04-23T21:32:01.343Z,25.40
2023-04-23T21:34:32.148Z,83.93
2023-04-23T21:37:03.068Z,51.45
2023-04-23T21:39:34.567Z,37.28
2023-04-23T21:42:05.420Z,211.38
2023-04-23T21:44:41.845Z,176.18
2023-04-23T21:47:12.453Z,160.10
2023-04-23T21:49:45.374Z,60.50
2023-04-23T21:52:16.255Z,39.53
2023-04-23T21:54:47.078Z,29.80
2023-04-23T21:57:17.794Z,32.35
2023-04-23T21:59:49.412Z,35.45
2023-04-23T22:02:20.742Z,31.83
2023-04-23T22:04:52.197Z,35.13
2023-04-23T22:07:22.964Z,30.13
2023-04-23T22:09:53.963Z,32.38
2023-04-23T22:12:25.549Z,28.85
2023-04-23T22:14:57.448Z,34.60
2023-04-23T22:17:31.624Z,32.53
2023-04-23T22:20:02.525Z,37.70
2023-04-23T22:22:34.022Z,28.25
2023-04-23T22:25:13.833Z,25.87
2023-04-23T22:27:45.646Z,26.02
2023-04-23T22:30:17.700Z,25.97
2023-04-23T22:32:48.735Z,25.77
2023-04-23T22:35:20.138Z,24.77
2023-04-23T22:37:50.880Z,25.80
2023-04-23T22:40:22.800Z,27.33
2023-04-23T22:42:53.619Z,22.47
2023-04-23T22:45:25.259Z,23.27
2023-04-23T22:47:56.664Z,23.97
2023-04-23T22:50:28.153Z,23.80
2023-04-23T22:52:58.954Z,24.38
2023-04-23T22:55:29.580Z,23.10
2023-04-23T22:58:00.382Z,25.52
2023-04-23T23:00:31.210Z,26.60
2023-04-23T23:03:03.089Z,31.48
2023-04-23T23:05:33.912Z,29.77
2023-04-23T23:08:04.658Z,32.05
2023-04-23T23:13:16.264Z,31.13
2023-04-23T23:15:48.169Z,28.48
2023-04-23T23:18:19.809Z,29.20
2023-04-23T23:20:50.713Z,30.27
2023-04-23T23:23:23.048Z,32.78
2023-04-23T23:25:53.487Z,31.52
2023-04-23T23:28:27.588Z,34.35
2023-04-23T23:30:59.535Z,41.53
2023-04-23T23:33:30.484Z,41.83
2023-04-23T23:36:01.443Z,52.47
2023-04-23T23:38:32.486Z,55.30
2023-04-23T23:41:03.170Z,46.15
2023-04-23T23:43:34.996Z,45.47
2023-04-23T23:46:05.874Z,47.60
2023-04-23T23:48:46.725Z,48.35
2023-04-23T23:51:17.773Z,55.83
2023-04-23T23:53:48.549Z,64.60
2023-04-23T23:56:19.424Z,61.65
2023-04-23T23:58:50.994Z,64.30
